Launceston Airport

Airport
ICAO code: 
YMLT
IATA Code: 
LST
Summary
ICAO Region: 
APAC
Territory: 
Location: 
Launceston, Tasmania
Serving: 
Launceston
Elevation: 
562 ft
Coordinates: 
Aerial View: 
41° 32' 43.019" S, 147° 12' 37.238" E
Metar
Observation
YMLT 281400Z AUTO 31006KT 9999 // NCD 10/06 Q1023
Station
Launceston Airport
Date/Time
2021-11-28 14:00:00
Wind direction
310°
Wind speed
06 kts
Lowest cloud amount
no clouds detected
Temperature
10°C
Dew point
6°C
Humidity
76%
QNH
1023 hPa
Weather condition
n/a

Launceston Airport is a regional airport on the outskirts of Launceston, Tasmania. The airport is located in the rural area of Western Junction 15 km from Launceston city centre.

Climatology

Mild temperate oceanic climate (Köppen climate classification Cfb).

Runways

Designator Length Width Surface Rops
18/36 690 18 GRS No/No
14L/32R 700 18 GRS No/No
14R/32L 1981 45 ASP Yes/Yes
Airport map: 
Aerial View: 

Accidents and Serious Incidents at or in the vicinity of YMLT

SKYbrary Partners:

Safety knowledge contributed by: